Sunol, CA

11:56 AM PDT on August 21, 2014 (GMT -0700)
Top of Welch Creek Rd | Change Station
CLOSE
Current Station
Personal Weather Station
Location: Sunol, CA
Elevation: 2188 ft
Nearby Weather Stations

Elev 2188 ft 37.53 °N, 121.79 °W | Updated 1 minute ago

Clear
Clear
78.6 °F
Feels Like 78.6 °F
N
5.0
Wind Variable Wind from SW
Gusts 7.0 mph

Today
High -- | Low -- °F
--% Chance of Precip.
Yesterday
High -- | Low -- °F
Precip. -- in
6:28 AM 7:51 PM
Waning Crescent, 13% visible
Pressure 29.94 in
Visibility 10.0 miles
Clouds Clear
Dew Point 54.9 °F
Humidity 44%
Rainfall 0.00 in
Snow Depth Not available.
UV 7 out of 12
Pollen 5.90 out of 12
Air Quality Not available.
Flu Activity Not available.
METAR KLVK 211753Z VRB03KT 10SM CLR 22/13 A2995 RMK AO2 SLP138 T02220128 10228 20150 51002

More Conditions Fewer Conditions

Pressure 29.94 in
Visibility 10.0 miles
Clouds Clear
Dew Point 54.9 °F
Humidity 44%
Rainfall 0.00 in
Snow Depth Not available.
UV 7 out of 12
Pollen 5.90 out of 12
Air Quality Not available.
Flu Activity Not available.
METAR KLVK 211753Z VRB03KT 10SM CLR 22/13 A2995 RMK AO2 SLP138 T02220128 10228 20150 51002

More Conditions Fewer Conditions

10-Day Weather Forecast

Almanac

Astronomy

Aug. 21, 2014 Rise Set
Actual Time 6:28 AM PDT 7:51 PM PDT
Civil Twilight 6:00 AM PDT 8:18 PM PDT
Nautical Twilight 5:27 AM PDT 8:51 PM PDT
Astronomical Twilight 4:53 AM PDT 9:26 PM PDT
Moon 3:05 AM PDT 5:22 PM PDT
Length of Visible Light 14h 18m
Length of Day
13h 23m
Tomorrow will be 2m 12s shorter.
Waning Crescent, 13% of the Moon is Illuminated
Today
Waning Crescent
Aug 25
New
Sep 2
First Quarter
Sep 8
Full
Sep 15
Last Quarter

Today's Extremes

State Highs State Lows

Community

WunderPhotos

Upload Photos

1,745,996 photos uploaded!

WunderBlogs® & News

Nearby

Air Quality

  Air Quality AQ Index Pollutant
Yesterday Good
OZONE
Yesterday Good
PM2.5
Thursday Good
OZONE
Friday Good
OZONE
Saturday Good
OZONE
Sunday Good
OZONE
Monday Good
OZONE
Tuesday Good
OZONE

Snow Depth

Station Depth Elevation
Echo Peak 0 in 7800 ft
Fallen Leaf 0 in 6300 ft
CSS Lab 0 in 6900 ft
Adin Mountain 0 in 6200 ft
Cedar Pass 0 in 7100 ft

Earthquake Activity

City Distance Mag. Time & Date
Berkeley, California 33 miles 2.6 7:41 PM PDT
2014-08-16
King City, California 99 miles 2.7 10:26 PM PDT
2014-08-15
Kettleman City, California 141 miles 2.9 11:32 PM PDT
2014-08-14
King City, California 98 miles 2.9 8:01 PM PDT
2014-08-14
Minimum magnitude displayed is 2.5.

Coastal Water Temperatures

Place Temperature
No Stations Reporting

Nearby Weather Stations